Hovedside
METAR-TAF:

METAR-TAF

Lufthavner :

Oljeplattform

K14-fa-1c, Nederland

breddegrad: 53-16-10N, lengdegrad: 3-37-40E, høyde over havet: 28 m

Gjeldene værobservasjon

Denne rapporten ble laget for 23 minutter siden, klokken 13:55 UTC
Vind 7 kt fra Sør-sørøst
Temperatur 17°C
Luftfuktighet 94%
Trykk 1022 hPa
Sikt 10 km eller mer

METAR: EHKV 181355Z AUTO 15007KT 9999 NCD 17/16 Q1022

Tid: 16:18 (14:18 UTC)


TAF: fraværende

Værobservasjoner og værvarsel for over 4000 flyplasser (METAR- og TAF-rapporter).

Tilgjengelige stasjoner er representert av de røde og gule prikkene på kartet.

Hold musepekeren over prikken for å se navnet på stasjonen.

Klikk så for å se værobservasjoner og -varsler.

For å forandre kartet kan du klikke på den grønne knappen med svart kryss for å zoome inn, på den grønne knappen med strek for å zoome ut, eller på de grønne pilene for å se tilstøtende kart.


METAR-TAF: